sensor_id;sensor_type;location;lat;lon;timestamp;P1;durP1;ratioP1;P2;durP2;ratioP2
7531;SDS011;3807;49.030;8.714;2023-08-24T00:01:59;3.87;;;3.47;;
7531;SDS011;3807;49.030;8.714;2023-08-24T00:04:24;9.10;;;3.50;;
7531;SDS011;3807;49.030;8.714;2023-08-24T00:06:49;6.85;;;3.42;;
7531;SDS011;3807;49.030;8.714;2023-08-24T00:09:14;4.03;;;3.42;;
7531;SDS011;3807;49.030;8.714;2023-08-24T00:11:40;4.15;;;3.08;;
7531;SDS011;3807;49.030;8.714;2023-08-24T00:14:06;4.78;;;3.45;;
7531;SDS011;3807;49.030;8.714;2023-08-24T00:16:31;6.97;;;3.50;;
7531;SDS011;3807;49.030;8.714;2023-08-24T00:18:57;6.55;;;3.00;;
7531;SDS011;3807;49.030;8.714;2023-08-24T00:21:23;4.25;;;3.17;;
7531;SDS011;3807;49.030;8.714;2023-08-24T00:23:49;6.75;;;3.33;;
7531;SDS011;3807;49.030;8.714;2023-08-24T00:26:15;3.50;;;2.97;;
7531;SDS011;3807;49.030;8.714;2023-08-24T00:28:42;6.47;;;3.40;;
7531;SDS011;3807;49.030;8.714;2023-08-24T00:31:08;4.50;;;3.53;;
7531;SDS011;3807;49.030;8.714;2023-08-24T00:33:33;7.40;;;3.20;;
7531;SDS011;3807;49.030;8.714;2023-08-24T00:35:59;4.75;;;3.62;;
7531;SDS011;3807;49.030;8.714;2023-08-24T00:38:25;5.37;;;3.42;;
7531;SDS011;3807;49.030;8.714;2023-08-24T00:40:51;4.40;;;2.87;;
7531;SDS011;3807;49.030;8.714;2023-08-24T00:43:18;3.40;;;3.08;;
7531;SDS011;3807;49.030;8.714;2023-08-24T00:45:47;4.80;;;3.12;;
7531;SDS011;3807;49.030;8.714;2023-08-24T00:48:12;4.25;;;2.90;;
7531;SDS011;3807;49.030;8.714;2023-08-24T00:50:38;4.62;;;2.80;;
7531;SDS011;3807;49.030;8.714;2023-08-24T00:53:03;5.97;;;3.58;;
7531;SDS011;3807;49.030;8.714;2023-08-24T00:55:28;4.18;;;3.45;;
7531;SDS011;3807;49.030;8.714;2023-08-24T00:57:54;6.28;;;3.22;;
7531;SDS011;3807;49.030;8.714;2023-08-24T01:00:20;5.43;;;3.40;;
7531;SDS011;3807;49.030;8.714;2023-08-24T01:02:47;4.78;;;3.00;;
7531;SDS011;3807;49.030;8.714;2023-08-24T01:05:12;4.05;;;3.10;;
7531;SDS011;3807;49.030;8.714;2023-08-24T01:07:38;4.20;;;3.20;;
7531;SDS011;3807;49.030;8.714;2023-08-24T01:10:05;6.68;;;3.58;;
7531;SDS011;3807;49.030;8.714;2023-08-24T01:12:39;6.80;;;3.33;;
7531;SDS011;3807;49.030;8.714;2023-08-24T01:17:52;3.83;;;3.37;;
7531;SDS011;3807;49.030;8.714;2023-08-24T01:20:23;7.32;;;3.50;;
7531;SDS011;3807;49.030;8.714;2023-08-24T01:23:02;4.62;;;3.50;;
7531;SDS011;3807;49.030;8.714;2023-08-24T01:27:59;4.43;;;3.40;;
7531;SDS011;3807;49.030;8.714;2023-08-24T01:30:26;5.00;;;3.22;;
7531;SDS011;3807;49.030;8.714;2023-08-24T01:32:52;3.80;;;3.40;;
7531;SDS011;3807;49.030;8.714;2023-08-24T01:35:18;5.22;;;3.30;;
7531;SDS011;3807;49.030;8.714;2023-08-24T01:37:43;6.65;;;3.47;;
7531;SDS011;3807;49.030;8.714;2023-08-24T01:42:48;5.95;;;3.42;;
7531;SDS011;3807;49.030;8.714;2023-08-24T01:45:22;6.07;;;3.85;;
7531;SDS011;3807;49.030;8.714;2023-08-24T01:47:49;6.20;;;3.87;;
7531;SDS011;3807;49.030;8.714;2023-08-24T01:50:16;6.40;;;3.42;;
7531;SDS011;3807;49.030;8.714;2023-08-24T01:52:41;5.80;;;3.00;;
7531;SDS011;3807;49.030;8.714;2023-08-24T01:55:07;3.97;;;3.22;;
7531;SDS011;3807;49.030;8.714;2023-08-24T01:57:33;4.90;;;3.28;;
7531;SDS011;3807;49.030;8.714;2023-08-24T01:59:58;5.75;;;3.40;;
7531;SDS011;3807;49.030;8.714;2023-08-24T02:02:24;6.40;;;3.70;;
7531;SDS011;3807;49.030;8.714;2023-08-24T02:04:49;7.60;;;4.00;;
7531;SDS011;3807;49.030;8.714;2023-08-24T02:07:15;7.07;;;4.10;;
7531;SDS011;3807;49.030;8.714;2023-08-24T02:09:40;5.35;;;3.70;;
7531;SDS011;3807;49.030;8.714;2023-08-24T02:12:06;4.65;;;3.15;;
7531;SDS011;3807;49.030;8.714;2023-08-24T02:14:31;7.70;;;3.50;;
7531;SDS011;3807;49.030;8.714;2023-08-24T02:16:57;4.32;;;3.53;;
7531;SDS011;3807;49.030;8.714;2023-08-24T02:19:22;5.57;;;3.67;;
7531;SDS011;3807;49.030;8.714;2023-08-24T02:21:47;5.10;;;3.58;;
7531;SDS011;3807;49.030;8.714;2023-08-24T02:24:13;4.30;;;3.35;;
7531;SDS011;3807;49.030;8.714;2023-08-24T02:26:38;6.07;;;3.67;;
7531;SDS011;3807;49.030;8.714;2023-08-24T02:29:03;4.97;;;3.47;;
7531;SDS011;3807;49.030;8.714;2023-08-24T02:31:29;8.55;;;3.25;;
7531;SDS011;3807;49.030;8.714;2023-08-24T02:33:55;5.57;;;3.97;;
7531;SDS011;3807;49.030;8.714;2023-08-24T02:36:20;8.77;;;4.25;;
7531;SDS011;3807;49.030;8.714;2023-08-24T02:38:46;6.20;;;4.20;;
7531;SDS011;3807;49.030;8.714;2023-08-24T02:41:11;4.57;;;4.10;;
7531;SDS011;3807;49.030;8.714;2023-08-24T02:43:39;7.35;;;3.80;;
7531;SDS011;3807;49.030;8.714;2023-08-24T02:46:08;6.18;;;4.10;;
7531;SDS011;3807;49.030;8.714;2023-08-24T02:48:35;4.07;;;3.60;;
7531;SDS011;3807;49.030;8.714;2023-08-24T02:51:01;5.93;;;3.75;;
7531;SDS011;3807;49.030;8.714;2023-08-24T02:53:28;5.43;;;3.62;;
7531;SDS011;3807;49.030;8.714;2023-08-24T02:55:54;6.28;;;3.75;;
7531;SDS011;3807;49.030;8.714;2023-08-24T02:58:20;8.60;;;4.12;;
7531;SDS011;3807;49.030;8.714;2023-08-24T03:00:46;4.95;;;3.50;;
7531;SDS011;3807;49.030;8.714;2023-08-24T03:03:12;5.12;;;3.97;;
7531;SDS011;3807;49.030;8.714;2023-08-24T03:05:39;8.50;;;3.75;;
7531;SDS011;3807;49.030;8.714;2023-08-24T03:08:05;6.32;;;3.55;;
7531;SDS011;3807;49.030;8.714;2023-08-24T03:10:31;6.22;;;4.15;;
7531;SDS011;3807;49.030;8.714;2023-08-24T03:13:00;6.35;;;3.67;;
7531;SDS011;3807;49.030;8.714;2023-08-24T03:15:25;4.07;;;3.40;;
7531;SDS011;3807;49.030;8.714;2023-08-24T03:17:50;7.00;;;3.87;;
7531;SDS011;3807;49.030;8.714;2023-08-24T03:20:17;8.85;;;3.78;;
7531;SDS011;3807;49.030;8.714;2023-08-24T03:22:43;5.00;;;3.70;;
7531;SDS011;3807;49.030;8.714;2023-08-24T03:25:08;4.43;;;3.87;;
7531;SDS011;3807;49.030;8.714;2023-08-24T03:27:34;6.28;;;3.80;;
7531;SDS011;3807;49.030;8.714;2023-08-24T03:30:00;7.53;;;4.22;;
7531;SDS011;3807;49.030;8.714;2023-08-24T03:32:26;6.90;;;4.18;;
7531;SDS011;3807;49.030;8.714;2023-08-24T03:34:53;4.43;;;3.60;;
7531;SDS011;3807;49.030;8.714;2023-08-24T03:37:23;5.00;;;4.28;;
7531;SDS011;3807;49.030;8.714;2023-08-24T03:39:48;7.32;;;4.15;;
7531;SDS011;3807;49.030;8.714;2023-08-24T03:42:14;5.47;;;4.03;;
7531;SDS011;3807;49.030;8.714;2023-08-24T03:44:39;7.85;;;3.67;;
7531;SDS011;3807;49.030;8.714;2023-08-24T03:47:04;4.87;;;3.80;;
7531;SDS011;3807;49.030;8.714;2023-08-24T03:49:30;5.68;;;3.83;;
7531;SDS011;3807;49.030;8.714;2023-08-24T03:51:55;5.62;;;4.03;;
7531;SDS011;3807;49.030;8.714;2023-08-24T03:54:20;4.45;;;3.90;;
7531;SDS011;3807;49.030;8.714;2023-08-24T03:56:46;4.93;;;3.97;;
7531;SDS011;3807;49.030;8.714;2023-08-24T03:59:11;6.43;;;3.87;;
7531;SDS011;3807;49.030;8.714;2023-08-24T04:01:37;5.32;;;4.15;;
7531;SDS011;3807;49.030;8.714;2023-08-24T04:04:02;5.82;;;4.25;;
7531;SDS011;3807;49.030;8.714;2023-08-24T04:06:28;6.15;;;4.00;;
7531;SDS011;3807;49.030;8.714;2023-08-24T04:08:53;6.05;;;4.12;;
7531;SDS011;3807;49.030;8.714;2023-08-24T04:11:18;5.12;;;3.95;;
7531;SDS011;3807;49.030;8.714;2023-08-24T04:13:44;5.50;;;4.43;;
7531;SDS011;3807;49.030;8.714;2023-08-24T04:16:09;5.25;;;3.80;;
7531;SDS011;3807;49.030;8.714;2023-08-24T04:18:34;8.23;;;4.35;;
7531;SDS011;3807;49.030;8.714;2023-08-24T04:21:00;6.55;;;3.92;;
7531;SDS011;3807;49.030;8.714;2023-08-24T04:23:25;6.00;;;3.70;;
7531;SDS011;3807;49.030;8.714;2023-08-24T04:25:51;5.25;;;4.07;;
7531;SDS011;3807;49.030;8.714;2023-08-24T04:28:18;6.15;;;3.92;;
7531;SDS011;3807;49.030;8.714;2023-08-24T04:30:50;6.12;;;4.72;;
7531;SDS011;3807;49.030;8.714;2023-08-24T04:33:16;6.72;;;4.30;;
7531;SDS011;3807;49.030;8.714;2023-08-24T04:35:41;6.60;;;4.60;;
7531;SDS011;3807;49.030;8.714;2023-08-24T04:38:07;6.22;;;4.10;;
7531;SDS011;3807;49.030;8.714;2023-08-24T04:40:47;10.00;;;4.87;;
7531;SDS011;3807;49.030;8.714;2023-08-24T04:43:15;7.72;;;4.28;;
7531;SDS011;3807;49.030;8.714;2023-08-24T04:45:40;7.07;;;3.92;;
7531;SDS011;3807;49.030;8.714;2023-08-24T04:48:06;7.25;;;4.25;;
7531;SDS011;3807;49.030;8.714;2023-08-24T04:50:31;5.12;;;4.10;;
7531;SDS011;3807;49.030;8.714;2023-08-24T04:52:56;6.00;;;4.32;;
7531;SDS011;3807;49.030;8.714;2023-08-24T04:55:22;5.43;;;4.25;;
7531;SDS011;3807;49.030;8.714;2023-08-24T04:57:48;6.65;;;4.30;;
7531;SDS011;3807;49.030;8.714;2023-08-24T05:00:13;9.45;;;4.37;;
7531;SDS011;3807;49.030;8.714;2023-08-24T05:02:41;6.37;;;4.05;;
7531;SDS011;3807;49.030;8.714;2023-08-24T05:05:07;8.70;;;4.28;;
7531;SDS011;3807;49.030;8.714;2023-08-24T05:07:35;6.47;;;3.95;;
7531;SDS011;3807;49.030;8.714;2023-08-24T05:10:00;5.80;;;3.95;;
7531;SDS011;3807;49.030;8.714;2023-08-24T05:12:25;8.82;;;4.55;;
7531;SDS011;3807;49.030;8.714;2023-08-24T05:14:51;5.28;;;3.80;;
7531;SDS011;3807;49.030;8.714;2023-08-24T05:17:16;6.80;;;4.68;;
7531;SDS011;3807;49.030;8.714;2023-08-24T05:19:41;7.32;;;4.68;;
7531;SDS011;3807;49.030;8.714;2023-08-24T05:22:07;5.75;;;4.00;;
7531;SDS011;3807;49.030;8.714;2023-08-24T05:24:32;6.37;;;4.03;;
7531;SDS011;3807;49.030;8.714;2023-08-24T05:26:57;10.80;;;4.50;;
7531;SDS011;3807;49.030;8.714;2023-08-24T05:29:23;12.07;;;4.07;;
7531;SDS011;3807;49.030;8.714;2023-08-24T05:31:48;5.22;;;3.95;;
7531;SDS011;3807;49.030;8.714;2023-08-24T05:34:13;10.43;;;3.90;;
7531;SDS011;3807;49.030;8.714;2023-08-24T05:36:39;9.85;;;4.05;;
7531;SDS011;3807;49.030;8.714;2023-08-24T05:39:04;4.00;;;3.60;;
7531;SDS011;3807;49.030;8.714;2023-08-24T05:41:29;6.82;;;3.65;;
7531;SDS011;3807;49.030;8.714;2023-08-24T05:43:55;6.45;;;3.78;;
7531;SDS011;3807;49.030;8.714;2023-08-24T05:46:22;6.68;;;3.47;;
7531;SDS011;3807;49.030;8.714;2023-08-24T05:48:47;11.60;;;3.83;;
7531;SDS011;3807;49.030;8.714;2023-08-24T05:51:13;21.10;;;5.10;;
7531;SDS011;3807;49.030;8.714;2023-08-24T05:53:38;18.83;;;4.80;;
7531;SDS011;3807;49.030;8.714;2023-08-24T05:56:05;15.50;;;4.87;;
7531;SDS011;3807;49.030;8.714;2023-08-24T05:58:31;15.77;;;5.25;;
7531;SDS011;3807;49.030;8.714;2023-08-24T06:00:57;27.80;;;4.95;;
7531;SDS011;3807;49.030;8.714;2023-08-24T06:03:25;13.38;;;4.93;;
7531;SDS011;3807;49.030;8.714;2023-08-24T06:05:51;16.87;;;5.05;;
7531;SDS011;3807;49.030;8.714;2023-08-24T06:08:17;19.15;;;4.80;;
7531;SDS011;3807;49.030;8.714;2023-08-24T06:10:42;12.32;;;4.80;;
7531;SDS011;3807;49.030;8.714;2023-08-24T06:13:07;9.82;;;4.45;;
7531;SDS011;3807;49.030;8.714;2023-08-24T06:15:33;11.50;;;4.35;;
7531;SDS011;3807;49.030;8.714;2023-08-24T06:17:58;6.40;;;4.07;;
7531;SDS011;3807;49.030;8.714;2023-08-24T06:20:24;7.18;;;4.25;;
7531;SDS011;3807;49.030;8.714;2023-08-24T06:22:50;4.43;;;3.85;;
7531;SDS011;3807;49.030;8.714;2023-08-24T06:25:15;4.32;;;3.55;;
7531;SDS011;3807;49.030;8.714;2023-08-24T06:27:41;5.57;;;3.58;;
7531;SDS011;3807;49.030;8.714;2023-08-24T06:30:06;5.43;;;3.72;;
7531;SDS011;3807;49.030;8.714;2023-08-24T06:32:32;7.20;;;3.95;;
7531;SDS011;3807;49.030;8.714;2023-08-24T06:34:57;5.47;;;3.67;;
7531;SDS011;3807;49.030;8.714;2023-08-24T06:37:22;8.48;;;3.80;;
7531;SDS011;3807;49.030;8.714;2023-08-24T06:39:48;4.35;;;3.60;;
7531;SDS011;3807;49.030;8.714;2023-08-24T06:42:13;6.57;;;3.40;;
7531;SDS011;3807;49.030;8.714;2023-08-24T06:44:38;5.45;;;3.53;;
7531;SDS011;3807;49.030;8.714;2023-08-24T06:47:04;6.12;;;3.72;;
7531;SDS011;3807;49.030;8.714;2023-08-24T06:49:29;5.10;;;3.17;;
7531;SDS011;3807;49.030;8.714;2023-08-24T06:51:55;4.85;;;3.17;;
7531;SDS011;3807;49.030;8.714;2023-08-24T06:54:20;8.40;;;2.87;;
7531;SDS011;3807;49.030;8.714;2023-08-24T06:56:45;5.47;;;3.62;;
7531;SDS011;3807;49.030;8.714;2023-08-24T06:59:11;3.92;;;3.12;;
7531;SDS011;3807;49.030;8.714;2023-08-24T07:01:38;7.12;;;3.25;;
7531;SDS011;3807;49.030;8.714;2023-08-24T07:04:03;4.85;;;3.20;;
7531;SDS011;3807;49.030;8.714;2023-08-24T07:06:29;3.65;;;3.08;;
7531;SDS011;3807;49.030;8.714;2023-08-24T07:08:54;5.20;;;2.85;;
7531;SDS011;3807;49.030;8.714;2023-08-24T07:11:19;3.20;;;2.90;;
7531;SDS011;3807;49.030;8.714;2023-08-24T07:13:45;4.97;;;3.33;;
7531;SDS011;3807;49.030;8.714;2023-08-24T07:16:11;7.93;;;3.65;;
7531;SDS011;3807;49.030;8.714;2023-08-24T07:18:36;7.45;;;3.47;;
7531;SDS011;3807;49.030;8.714;2023-08-24T07:21:02;4.28;;;3.33;;
7531;SDS011;3807;49.030;8.714;2023-08-24T07:23:27;5.53;;;3.35;;
7531;SDS011;3807;49.030;8.714;2023-08-24T07:25:53;4.70;;;2.83;;
7531;SDS011;3807;49.030;8.714;2023-08-24T07:28:18;5.07;;;3.00;;
7531;SDS011;3807;49.030;8.714;2023-08-24T07:30:44;8.77;;;3.17;;
7531;SDS011;3807;49.030;8.714;2023-08-24T07:33:10;9.20;;;3.15;;
7531;SDS011;3807;49.030;8.714;2023-08-24T07:35:36;3.95;;;3.20;;
7531;SDS011;3807;49.030;8.714;2023-08-24T07:38:01;7.05;;;3.05;;
7531;SDS011;3807;49.030;8.714;2023-08-24T07:40:29;3.90;;;2.78;;
7531;SDS011;3807;49.030;8.714;2023-08-24T07:42:55;13.73;;;3.53;;
7531;SDS011;3807;49.030;8.714;2023-08-24T07:45:21;10.38;;;3.80;;
7531;SDS011;3807;49.030;8.714;2023-08-24T07:47:48;6.57;;;3.33;;
7531;SDS011;3807;49.030;8.714;2023-08-24T07:50:14;5.78;;;3.53;;
7531;SDS011;3807;49.030;8.714;2023-08-24T07:52:40;3.58;;;3.17;;
7531;SDS011;3807;49.030;8.714;2023-08-24T07:55:08;3.47;;;3.05;;
7531;SDS011;3807;49.030;8.714;2023-08-24T07:57:34;10.20;;;3.33;;
7531;SDS011;3807;49.030;8.714;2023-08-24T08:00:00;8.30;;;3.25;;
7531;SDS011;3807;49.030;8.714;2023-08-24T08:02:25;4.68;;;3.05;;
7531;SDS011;3807;49.030;8.714;2023-08-24T08:04:51;7.62;;;3.33;;
7531;SDS011;3807;49.030;8.714;2023-08-24T08:07:21;4.45;;;3.10;;
7531;SDS011;3807;49.030;8.714;2023-08-24T08:09:47;4.55;;;2.83;;
7531;SDS011;3807;49.030;8.714;2023-08-24T08:12:12;7.25;;;3.35;;
7531;SDS011;3807;49.030;8.714;2023-08-24T08:14:37;4.12;;;3.25;;
7531;SDS011;3807;49.030;8.714;2023-08-24T08:17:03;3.70;;;2.83;;
7531;SDS011;3807;49.030;8.714;2023-08-24T08:19:28;3.65;;;3.03;;
7531;SDS011;3807;49.030;8.714;2023-08-24T08:21:53;7.10;;;3.22;;
7531;SDS011;3807;49.030;8.714;2023-08-24T08:24:19;6.05;;;2.78;;
7531;SDS011;3807;49.030;8.714;2023-08-24T08:26:44;5.70;;;2.87;;
7531;SDS011;3807;49.030;8.714;2023-08-24T08:29:10;6.18;;;3.37;;
7531;SDS011;3807;49.030;8.714;2023-08-24T08:31:35;4.07;;;2.90;;
7531;SDS011;3807;49.030;8.714;2023-08-24T08:34:00;3.42;;;3.00;;
7531;SDS011;3807;49.030;8.714;2023-08-24T08:36:26;5.82;;;3.65;;
7531;SDS011;3807;49.030;8.714;2023-08-24T08:38:51;5.40;;;3.08;;
7531;SDS011;3807;49.030;8.714;2023-08-24T08:41:17;5.75;;;3.12;;
7531;SDS011;3807;49.030;8.714;2023-08-24T08:43:47;5.10;;;3.33;;
7531;SDS011;3807;49.030;8.714;2023-08-24T08:46:13;4.50;;;2.92;;
7531;SDS011;3807;49.030;8.714;2023-08-24T08:48:41;4.40;;;3.10;;
7531;SDS011;3807;49.030;8.714;2023-08-24T08:51:07;3.80;;;3.08;;
7531;SDS011;3807;49.030;8.714;2023-08-24T08:53:32;4.82;;;2.85;;
7531;SDS011;3807;49.030;8.714;2023-08-24T08:55:59;3.85;;;3.00;;
7531;SDS011;3807;49.030;8.714;2023-08-24T08:58:28;7.15;;;3.53;;
7531;SDS011;3807;49.030;8.714;2023-08-24T09:00:56;7.93;;;3.20;;
7531;SDS011;3807;49.030;8.714;2023-08-24T09:03:25;4.37;;;3.90;;
7531;SDS011;3807;49.030;8.714;2023-08-24T09:05:52;5.25;;;2.90;;
7531;SDS011;3807;49.030;8.714;2023-08-24T09:08:18;6.18;;;3.10;;
7531;SDS011;3807;49.030;8.714;2023-08-24T09:10:44;5.57;;;3.25;;
7531;SDS011;3807;49.030;8.714;2023-08-24T09:13:10;6.82;;;3.45;;
7531;SDS011;3807;49.030;8.714;2023-08-24T09:15:35;4.05;;;2.95;;
7531;SDS011;3807;49.030;8.714;2023-08-24T09:18:01;4.68;;;2.97;;
7531;SDS011;3807;49.030;8.714;2023-08-24T09:20:28;7.72;;;3.50;;
7531;SDS011;3807;49.030;8.714;2023-08-24T09:22:57;4.05;;;3.17;;
7531;SDS011;3807;49.030;8.714;2023-08-24T09:25:24;12.52;;;3.70;;
7531;SDS011;3807;49.030;8.714;2023-08-24T09:27:56;9.30;;;3.85;;
7531;SDS011;3807;49.030;8.714;2023-08-24T09:30:35;7.40;;;3.22;;
7531;SDS011;3807;49.030;8.714;2023-08-24T09:33:03;5.03;;;3.25;;
7531;SDS011;3807;49.030;8.714;2023-08-24T09:35:35;4.00;;;3.03;;
7531;SDS011;3807;49.030;8.714;2023-08-24T09:38:14;8.13;;;3.62;;
7531;SDS011;3807;49.030;8.714;2023-08-24T09:40:48;14.90;;;3.80;;
7531;SDS011;3807;49.030;8.714;2023-08-24T09:43:16;12.95;;;3.80;;
7531;SDS011;3807;49.030;8.714;2023-08-24T09:49:03;8.57;;;3.78;;
7531;SDS011;3807;49.030;8.714;2023-08-24T09:52:24;6.93;;;3.37;;
7531;SDS011;3807;49.030;8.714;2023-08-24T09:54:58;5.43;;;3.67;;
7531;SDS011;3807;49.030;8.714;2023-08-24T09:57:43;6.03;;;3.05;;
7531;SDS011;3807;49.030;8.714;2023-08-24T10:00:26;7.12;;;3.62;;
7531;SDS011;3807;49.030;8.714;2023-08-24T10:03:04;6.28;;;3.53;;
7531;SDS011;3807;49.030;8.714;2023-08-24T10:05:33;6.03;;;3.85;;
7531;SDS011;3807;49.030;8.714;2023-08-24T10:08:02;5.45;;;3.58;;
7531;SDS011;3807;49.030;8.714;2023-08-24T10:10:28;5.35;;;3.60;;
7531;SDS011;3807;49.030;8.714;2023-08-24T10:13:04;4.15;;;3.15;;
7531;SDS011;3807;49.030;8.714;2023-08-24T10:15:35;7.18;;;3.83;;
7531;SDS011;3807;49.030;8.714;2023-08-24T10:18:14;7.87;;;3.53;;
7531;SDS011;3807;49.030;8.714;2023-08-24T10:20:41;4.53;;;3.33;;
7531;SDS011;3807;49.030;8.714;2023-08-24T10:23:08;6.55;;;3.78;;
7531;SDS011;3807;49.030;8.714;2023-08-24T10:25:37;7.37;;;3.35;;
7531;SDS011;3807;49.030;8.714;2023-08-24T10:28:03;4.28;;;3.35;;
7531;SDS011;3807;49.030;8.714;2023-08-24T10:30:29;7.87;;;3.58;;
7531;SDS011;3807;49.030;8.714;2023-08-24T10:32:58;4.60;;;3.55;;
7531;SDS011;3807;49.030;8.714;2023-08-24T10:35:24;5.22;;;3.60;;
7531;SDS011;3807;49.030;8.714;2023-08-24T10:37:52;7.90;;;3.47;;
7531;SDS011;3807;49.030;8.714;2023-08-24T10:40:31;4.72;;;3.37;;
7531;SDS011;3807;49.030;8.714;2023-08-24T10:42:57;8.93;;;3.35;;
7531;SDS011;3807;49.030;8.714;2023-08-24T10:45:23;5.57;;;3.47;;
7531;SDS011;3807;49.030;8.714;2023-08-24T10:47:51;6.12;;;3.12;;
7531;SDS011;3807;49.030;8.714;2023-08-24T10:50:18;6.18;;;3.03;;
7531;SDS011;3807;49.030;8.714;2023-08-24T10:52:44;6.35;;;3.78;;
7531;SDS011;3807;49.030;8.714;2023-08-24T10:55:23;6.68;;;3.50;;
7531;SDS011;3807;49.030;8.714;2023-08-24T10:57:58;4.62;;;3.20;;
7531;SDS011;3807;49.030;8.714;2023-08-24T11:00:28;9.98;;;3.17;;
7531;SDS011;3807;49.030;8.714;2023-08-24T11:02:57;5.55;;;3.10;;
7531;SDS011;3807;49.030;8.714;2023-08-24T11:07:50;9.02;;;3.65;;
7531;SDS011;3807;49.030;8.714;2023-08-24T11:10:20;8.38;;;3.87;;
7531;SDS011;3807;49.030;8.714;2023-08-24T11:15:33;3.92;;;2.97;;
7531;SDS011;3807;49.030;8.714;2023-08-24T11:18:11;5.60;;;3.58;;
7531;SDS011;3807;49.030;8.714;2023-08-24T11:20:36;8.18;;;3.08;;
7531;SDS011;3807;49.030;8.714;2023-08-24T11:23:02;6.45;;;3.30;;
7531;SDS011;3807;49.030;8.714;2023-08-24T11:25:28;5.85;;;3.65;;
7531;SDS011;3807;49.030;8.714;2023-08-24T11:27:53;9.52;;;3.70;;
7531;SDS011;3807;49.030;8.714;2023-08-24T11:30:19;6.97;;;3.05;;
7531;SDS011;3807;49.030;8.714;2023-08-24T11:32:44;5.65;;;3.58;;
7531;SDS011;3807;49.030;8.714;2023-08-24T11:35:18;5.60;;;4.00;;
7531;SDS011;3807;49.030;8.714;2023-08-24T11:37:43;6.72;;;3.90;;
7531;SDS011;3807;49.030;8.714;2023-08-24T11:40:16;5.30;;;4.37;;
7531;SDS011;3807;49.030;8.714;2023-08-24T11:42:42;4.40;;;3.85;;
7531;SDS011;3807;49.030;8.714;2023-08-24T11:45:13;6.90;;;3.92;;
7531;SDS011;3807;49.030;8.714;2023-08-24T11:47:39;7.60;;;3.60;;
7531;SDS011;3807;49.030;8.714;2023-08-24T11:50:05;5.95;;;3.10;;
7531;SDS011;3807;49.030;8.714;2023-08-24T11:52:31;4.95;;;3.40;;
7531;SDS011;3807;49.030;8.714;2023-08-24T11:55:00;6.90;;;3.60;;
7531;SDS011;3807;49.030;8.714;2023-08-24T11:57:26;6.30;;;3.72;;
7531;SDS011;3807;49.030;8.714;2023-08-24T11:59:53;5.72;;;3.70;;
7531;SDS011;3807;49.030;8.714;2023-08-24T12:02:19;7.15;;;3.80;;
7531;SDS011;3807;49.030;8.714;2023-08-24T12:04:48;5.47;;;3.72;;
7531;SDS011;3807;49.030;8.714;2023-08-24T12:07:14;8.77;;;3.60;;
7531;SDS011;3807;49.030;8.714;2023-08-24T12:09:43;10.82;;;4.00;;
7531;SDS011;3807;49.030;8.714;2023-08-24T12:12:17;4.30;;;3.78;;
7531;SDS011;3807;49.030;8.714;2023-08-24T12:14:44;5.82;;;3.50;;
7531;SDS011;3807;49.030;8.714;2023-08-24T12:17:10;5.45;;;3.78;;
7531;SDS011;3807;49.030;8.714;2023-08-24T12:19:36;9.02;;;3.45;;
7531;SDS011;3807;49.030;8.714;2023-08-24T12:22:02;5.30;;;3.90;;
7531;SDS011;3807;49.030;8.714;2023-08-24T12:24:28;4.03;;;3.55;;
7531;SDS011;3807;49.030;8.714;2023-08-24T12:26:56;5.55;;;3.60;;
7531;SDS011;3807;49.030;8.714;2023-08-24T12:29:23;10.60;;;4.30;;
7531;SDS011;3807;49.030;8.714;2023-08-24T12:31:49;11.07;;;4.25;;
7531;SDS011;3807;49.030;8.714;2023-08-24T12:34:14;8.55;;;4.50;;
7531;SDS011;3807;49.030;8.714;2023-08-24T12:36:41;5.90;;;3.60;;
7531;SDS011;3807;49.030;8.714;2023-08-24T12:39:10;10.18;;;4.00;;
7531;SDS011;3807;49.030;8.714;2023-08-24T12:41:38;7.65;;;3.80;;
7531;SDS011;3807;49.030;8.714;2023-08-24T12:44:03;7.72;;;4.20;;
7531;SDS011;3807;49.030;8.714;2023-08-24T12:46:33;9.48;;;4.47;;
7531;SDS011;3807;49.030;8.714;2023-08-24T12:49:00;5.68;;;3.53;;
7531;SDS011;3807;49.030;8.714;2023-08-24T12:51:25;7.53;;;4.40;;
7531;SDS011;3807;49.030;8.714;2023-08-24T12:53:51;4.20;;;3.55;;
7531;SDS011;3807;49.030;8.714;2023-08-24T12:56:16;5.93;;;3.78;;
7531;SDS011;3807;49.030;8.714;2023-08-24T12:58:42;7.85;;;3.97;;
7531;SDS011;3807;49.030;8.714;2023-08-24T13:01:07;6.07;;;4.05;;
7531;SDS011;3807;49.030;8.714;2023-08-24T13:03:32;5.75;;;3.92;;
7531;SDS011;3807;49.030;8.714;2023-08-24T13:05:58;8.02;;;3.80;;
7531;SDS011;3807;49.030;8.714;2023-08-24T13:08:24;11.48;;;3.72;;
7531;SDS011;3807;49.030;8.714;2023-08-24T13:10:50;5.60;;;4.22;;
7531;SDS011;3807;49.030;8.714;2023-08-24T13:13:17;4.85;;;3.97;;
7531;SDS011;3807;49.030;8.714;2023-08-24T13:15:42;4.90;;;4.10;;
7531;SDS011;3807;49.030;8.714;2023-08-24T13:18:07;6.60;;;4.55;;
7531;SDS011;3807;49.030;8.714;2023-08-24T13:20:33;6.15;;;4.28;;
7531;SDS011;3807;49.030;8.714;2023-08-24T13:22:58;6.15;;;4.12;;
7531;SDS011;3807;49.030;8.714;2023-08-24T13:25:24;6.80;;;4.20;;
7531;SDS011;3807;49.030;8.714;2023-08-24T13:27:49;9.55;;;4.20;;
7531;SDS011;3807;49.030;8.714;2023-08-24T13:30:14;5.07;;;3.80;;
7531;SDS011;3807;49.030;8.714;2023-08-24T13:32:40;8.65;;;4.10;;
7531;SDS011;3807;49.030;8.714;2023-08-24T13:35:05;5.65;;;4.18;;
7531;SDS011;3807;49.030;8.714;2023-08-24T13:37:31;4.62;;;4.10;;
7531;SDS011;3807;49.030;8.714;2023-08-24T13:40:00;7.25;;;4.35;;
7531;SDS011;3807;49.030;8.714;2023-08-24T13:42:25;4.87;;;4.00;;
7531;SDS011;3807;49.030;8.714;2023-08-24T13:44:50;8.43;;;4.40;;
7531;SDS011;3807;49.030;8.714;2023-08-24T13:47:16;7.85;;;3.87;;
7531;SDS011;3807;49.030;8.714;2023-08-24T13:49:41;8.85;;;4.18;;
7531;SDS011;3807;49.030;8.714;2023-08-24T13:52:07;8.13;;;4.10;;
7531;SDS011;3807;49.030;8.714;2023-08-24T13:54:33;5.62;;;3.30;;
7531;SDS011;3807;49.030;8.714;2023-08-24T13:56:59;7.65;;;4.57;;
7531;SDS011;3807;49.030;8.714;2023-08-24T13:59:26;5.87;;;4.10;;
7531;SDS011;3807;49.030;8.714;2023-08-24T14:01:51;10.60;;;4.22;;
7531;SDS011;3807;49.030;8.714;2023-08-24T14:04:17;6.87;;;3.87;;
7531;SDS011;3807;49.030;8.714;2023-08-24T14:06:42;9.40;;;4.53;;
7531;SDS011;3807;49.030;8.714;2023-08-24T14:09:08;4.30;;;3.87;;
7531;SDS011;3807;49.030;8.714;2023-08-24T14:11:35;9.52;;;4.50;;
7531;SDS011;3807;49.030;8.714;2023-08-24T14:14:17;9.00;;;4.80;;
7531;SDS011;3807;49.030;8.714;2023-08-24T14:20:01;6.32;;;4.68;;
7531;SDS011;3807;49.030;8.714;2023-08-24T14:23:00;9.98;;;4.62;;
7531;SDS011;3807;49.030;8.714;2023-08-24T14:25:47;6.10;;;4.00;;
7531;SDS011;3807;49.030;8.714;2023-08-24T14:32:00;8.48;;;4.07;;
7531;SDS011;3807;49.030;8.714;2023-08-24T14:35:37;6.47;;;4.30;;
7531;SDS011;3807;49.030;8.714;2023-08-24T14:38:04;11.55;;;4.25;;
7531;SDS011;3807;49.030;8.714;2023-08-24T14:40:30;6.87;;;2.87;;
7531;SDS011;3807;49.030;8.714;2023-08-24T14:42:55;16.73;;;5.57;;
7531;SDS011;3807;49.030;8.714;2023-08-24T14:45:20;10.85;;;5.70;;
7531;SDS011;3807;49.030;8.714;2023-08-24T14:47:46;8.45;;;4.82;;
7531;SDS011;3807;49.030;8.714;2023-08-24T14:50:11;6.80;;;4.57;;
7531;SDS011;3807;49.030;8.714;2023-08-24T14:52:37;8.60;;;4.78;;
7531;SDS011;3807;49.030;8.714;2023-08-24T14:55:03;7.05;;;4.87;;
7531;SDS011;3807;49.030;8.714;2023-08-24T14:57:29;9.32;;;4.87;;
7531;SDS011;3807;49.030;8.714;2023-08-24T14:59:54;6.95;;;4.65;;
7531;SDS011;3807;49.030;8.714;2023-08-24T15:02:20;8.25;;;4.60;;
7531;SDS011;3807;49.030;8.714;2023-08-24T15:04:45;9.25;;;5.03;;
7531;SDS011;3807;49.030;8.714;2023-08-24T15:07:10;12.43;;;4.78;;
7531;SDS011;3807;49.030;8.714;2023-08-24T15:09:36;6.97;;;4.10;;
7531;SDS011;3807;49.030;8.714;2023-08-24T15:12:01;7.57;;;4.72;;
7531;SDS011;3807;49.030;8.714;2023-08-24T15:14:29;8.10;;;4.60;;
7531;SDS011;3807;49.030;8.714;2023-08-24T15:16:57;5.20;;;4.07;;
7531;SDS011;3807;49.030;8.714;2023-08-24T15:19:22;6.55;;;4.07;;
7531;SDS011;3807;49.030;8.714;2023-08-24T15:21:47;8.73;;;4.75;;
7531;SDS011;3807;49.030;8.714;2023-08-24T15:24:13;9.05;;;4.25;;
7531;SDS011;3807;49.030;8.714;2023-08-24T15:26:38;6.80;;;4.32;;
7531;SDS011;3807;49.030;8.714;2023-08-24T15:29:14;6.35;;;4.18;;
7531;SDS011;3807;49.030;8.714;2023-08-24T15:31:41;10.55;;;4.03;;
7531;SDS011;3807;49.030;8.714;2023-08-24T15:34:06;8.20;;;4.10;;
7531;SDS011;3807;49.030;8.714;2023-08-24T15:36:32;6.55;;;4.05;;
7531;SDS011;3807;49.030;8.714;2023-08-24T15:38:58;9.40;;;3.90;;